Time;durP1;ratioP1;P1;durP2;ratioP2;P2;SDS_P1;SDS_P2;PMS_P1;PMS_P2;Temp;Humidity;BMP_temperature;BMP_pressure;BME280_temperature;BME280_humidity;BME280_pressure;Samples;Min_cycle;Max_cycle;Signal;HPM_P1;HPM_P2
2022/09/19 00:02:23;;;;;;;9.07;6.47;;;;;;;18.87;63.13;96833.16;4945626;28;20100;-68
2022/09/19 00:04:49;;;;;;;9.70;7.20;;;;;;;18.90;63.36;96836.13;4961112;28;20046;-68
2022/09/19 00:07:14;;;;;;;13.02;7.30;;;;;;;18.92;62.99;96838.53;4929359;28;20042;-69
2022/09/19 00:09:40;;;;;;;11.55;6.75;;;;;;;18.92;63.01;96828.59;4929358;28;20507;-70
2022/09/19 00:12:06;;;;;;;8.65;7.00;;;;;;;18.94;62.82;96825.63;4929205;28;20049;-69
2022/09/19 00:14:33;;;;;;;8.45;6.68;;;;;;;19.17;62.58;96808.78;4929265;28;20547;-68
2022/09/19 00:17:03;;;;;;;8.02;6.38;;;;;;;18.99;62.76;96790.63;4944941;28;20053;-69
2022/09/19 00:19:29;;;;;;;9.63;6.72;;;;;;;18.92;63.55;96811.63;4961026;28;20058;-73
2022/09/19 00:21:57;;;;;;;9.85;6.45;;;;;;;19.04;63.18;96829.03;4960969;28;20061;-68
2022/09/19 00:27:07;;;;;;;13.50;6.97;;;;;;;18.94;63.36;96807.59;4947121;28;20062;-69
2022/09/19 00:29:35;;;;;;;12.38;8.27;;;;;;;18.91;63.54;96793.91;4977464;28;20042;-69
2022/09/19 00:32:01;;;;;;;11.02;6.60;;;;;;;18.83;63.71;96776.47;4961481;28;20120;-69
2022/09/19 00:34:30;;;;;;;10.55;7.07;;;;;;;18.75;64.00;96806.63;4961451;28;20093;-69
2022/09/19 00:36:56;;;;;;;11.13;7.13;;;;;;;18.69;64.02;96794.31;4944630;28;20063;-70
2022/09/19 00:39:22;;;;;;;10.50;7.47;;;;;;;18.73;63.98;96781.91;4928707;28;20054;-70
2022/09/19 00:41:49;;;;;;;11.48;7.18;;;;;;;18.89;63.64;96785.28;4961373;28;20050;-69
2022/09/19 00:44:21;;;;;;;12.30;6.70;;;;;;;19.07;63.45;96780.06;4945055;28;20038;-70
2022/09/19 00:47:08;;;;;;;13.20;7.93;;;;;;;19.00;63.39;96771.50;4945240;28;20050;-69
2022/09/19 00:49:38;;;;;;;11.60;7.30;;;;;;;19.16;62.94;96788.34;4960239;28;20053;-69
2022/09/19 00:52:07;;;;;;;10.43;6.93;;;;;;;19.26;62.78;96786.38;4960776;28;20050;-69
2022/09/19 00:54:36;;;;;;;9.48;6.75;;;;;;;19.12;63.21;96785.41;4976824;28;20491;-71
2022/09/19 00:57:03;;;;;;;14.05;7.03;;;;;;;19.07;63.37;96788.13;4944873;28;20050;-70
2022/09/19 00:59:31;;;;;;;8.00;6.22;;;;;;;19.17;63.25;96782.69;4960355;28;20077;-70
2022/09/19 01:01:58;;;;;;;9.80;7.15;;;;;;;19.05;63.36;96768.75;4960536;28;20050;-70
2022/09/19 01:04:28;;;;;;;14.88;7.75;;;;;;;19.04;63.48;96794.06;4944266;28;20129;-69
2022/09/19 01:07:10;;;;;;;12.45;7.40;;;;;;;19.27;63.23;96788.00;4960600;28;20108;-69
2022/09/19 01:09:39;;;;;;;9.35;7.10;;;;;;;19.24;63.18;96772.38;4960399;28;20057;-69
2022/09/19 01:12:46;;;;;;;12.75;7.43;;;;;;;19.41;62.10;96747.78;4959953;28;20053;-71
2022/09/19 01:15:38;;;;;;;12.35;7.45;;;;;;;19.62;62.13;96779.59;4961278;28;20056;-72
2022/09/19 01:18:06;;;;;;;10.73;7.15;;;;;;;19.62;61.80;96770.72;4976237;28;20108;-72
2022/09/19 01:20:58;;;;;;;13.32;7.68;;;;;;;19.87;61.10;96773.94;4959936;28;20388;-74
2022/09/19 01:23:52;;;;;;;11.48;7.40;;;;;;;19.69;61.49;96763.91;4944198;28;20190;-70
2022/09/19 01:26:43;;;;;;;10.45;6.82;;;;;;;20.03;60.74;96780.75;4992074;28;20046;-70
2022/09/19 01:29:17;;;;;;;14.52;7.20;;;;;;;19.96;60.93;96761.47;4972919;28;20065;-71
2022/09/19 01:31:46;;;;;;;9.57;6.93;;;;;;;19.68;61.63;96769.59;4924249;28;20065;-70
2022/09/19 01:34:23;;;;;;;12.45;7.57;;;;;;;19.79;61.39;96781.84;4956550;28;20096;-72
2022/09/19 01:36:58;;;;;;;10.75;6.63;;;;;;;19.73;61.89;96766.81;4957015;28;20104;-71
2022/09/19 01:39:25;;;;;;;13.65;7.45;;;;;;;19.74;61.79;96765.75;4973894;28;20126;-70
2022/09/19 01:41:59;;;;;;;10.00;7.80;;;;;;;19.51;61.92;96771.91;4959443;28;20038;-71
2022/09/19 01:44:27;;;;;;;13.65;7.60;;;;;;;19.84;61.58;96762.94;4928567;28;20404;-69
2022/09/19 01:47:13;;;;;;;10.18;7.30;;;;;;;19.99;61.04;96751.97;4959704;28;20064;-70
2022/09/19 01:50:04;;;;;;;12.75;8.20;;;;;;;19.52;61.42;96725.06;4959643;28;20089;-69
2022/09/19 01:52:49;;;;;;;10.35;8.18;;;;;;;20.00;60.98;96745.53;4946130;28;20139;-69
2022/09/19 01:55:46;;;;;;;12.00;8.68;;;;;;;20.03;60.95;96737.66;4960919;28;20054;-69
2022/09/19 01:58:40;;;;;;;10.55;8.20;;;;;;;20.06;60.69;96741.69;4928911;28;20444;-73
2022/09/19 02:01:28;;;;;;;14.80;9.00;;;;;;;19.80;61.09;96711.53;4962398;28;20181;-74
2022/09/19 02:04:00;;;;;;;13.40;9.15;;;;;;;20.05;61.17;96742.75;4978027;28;20034;-72
2022/09/19 02:06:45;;;;;;;15.02;10.00;;;;;;;19.93;61.18;96750.44;4961101;28;20116;-72
2022/09/19 02:09:22;;;;;;;17.80;9.70;;;;;;;19.92;61.89;96736.19;4977229;28;20120;-71
2022/09/19 02:11:51;;;;;;;14.60;11.07;;;;;;;19.75;62.02;96735.03;4929887;28;20097;-72
2022/09/19 02:14:21;;;;;;;14.75;11.23;;;;;;;19.81;62.30;96740.09;4961857;28;20064;-72
2022/09/19 02:17:04;;;;;;;17.33;11.30;;;;;;;19.79;62.08;96758.41;4976819;28;20201;-72
2022/09/19 02:19:44;;;;;;;15.55;11.23;;;;;;;20.03;61.40;96743.03;4946013;28;20478;-71
2022/09/19 02:22:28;;;;;;;15.45;11.15;;;;;;;19.92;61.60;96735.38;4946934;28;20578;-71
2022/09/19 02:24:58;;;;;;;22.10;12.48;;;;;;;19.82;62.03;96746.25;4978968;28;20057;-68
2022/09/19 02:27:35;;;;;;;18.15;11.55;;;;;;;19.74;61.35;96718.06;4959679;28;20066;-69
2022/09/19 02:30:06;;;;;;;17.10;11.73;;;;;;;19.72;61.19;96706.00;4960499;28;20051;-68
2022/09/19 02:32:36;;;;;;;19.30;12.18;;;;;;;19.55;62.27;96738.75;4944460;28;20189;-68
2022/09/19 02:35:04;;;;;;;16.58;12.68;;;;;;;19.69;61.73;96731.59;4943628;28;20068;-70
2022/09/19 02:37:35;;;;;;;16.65;12.98;;;;;;;19.73;61.82;96729.94;4959418;28;20062;-69
2022/09/19 02:40:16;;;;;;;20.38;13.13;;;;;;;19.56;62.18;96731.47;4944300;28;20061;-69
2022/09/19 02:42:52;;;;;;;22.60;13.20;;;;;;;19.70;61.67;96716.25;4943532;28;20038;-69
2022/09/19 02:45:28;;;;;;;20.23;13.75;;;;;;;19.55;62.44;96719.91;4975405;28;20066;-68
2022/09/19 02:48:11;;;;;;;20.27;14.07;;;;;;;19.50;62.53;96701.13;4960794;28;20129;-68
2022/09/19 02:50:48;;;;;;;18.63;14.07;;;;;;;19.24;62.94;96710.50;4958504;28;20078;-68
2022/09/19 02:53:19;;;;;;;19.70;13.60;;;;;;;19.26;62.74;96711.03;4957810;28;20039;-69
2022/09/19 02:55:51;;;;;;;19.48;14.30;;;;;;;19.23;62.99;96716.97;4958734;28;20042;-69
2022/09/19 02:58:19;;;;;;;19.75;14.02;;;;;;;19.24;62.96;96710.50;4942438;28;20129;-69
2022/09/19 03:00:51;;;;;;;20.27;13.65;;;;;;;19.32;62.73;96712.63;4957083;28;20117;-70
2022/09/19 03:06:11;;;;;;;21.23;14.48;;;;;;;19.38;62.92;96698.03;4943774;28;20124;-69
2022/09/19 03:08:37;;;;;;;22.10;13.45;;;;;;;19.34;62.43;96709.63;4975813;28;20499;-68
2022/09/19 03:11:13;;;;;;;19.02;12.57;;;;;;;19.53;62.07;96705.94;4944630;28;20053;-69
2022/09/19 03:13:41;;;;;;;22.63;12.70;;;;;;;19.26;61.93;96708.34;4945142;28;20047;-71
2022/09/19 03:16:16;;;;;;;18.02;10.43;;;;;;;19.40;61.76;96698.53;4944908;28;20485;-71
2022/09/19 03:18:46;;;;;;;11.50;8.18;;;;;;;19.32;61.24;96690.28;4977486;28;20046;-70
2022/09/19 03:21:13;;;;;;;12.02;6.10;;;;;;;19.35;60.11;96695.09;4944313;28;20489;-70
2022/09/19 03:23:49;;;;;;;9.48;5.40;;;;;;;19.48;58.99;96683.66;4928805;28;20420;-70
2022/09/19 03:26:25;;;;;;;9.15;4.95;;;;;;;19.53;58.66;96670.13;4945440;28;20058;-70
2022/09/19 03:28:54;;;;;;;9.60;4.90;;;;;;;19.56;58.66;96675.75;4959005;28;20413;-71
2022/09/19 03:31:22;;;;;;;9.05;4.68;;;;;;;19.70;58.04;96665.06;4927867;28;20054;-68
2022/09/19 03:33:49;;;;;;;9.18;4.70;;;;;;;19.44;58.06;96678.03;4975219;28;20051;-69
2022/09/19 03:36:15;;;;;;;6.32;4.30;;;;;;;19.29;58.26;96682.78;4942854;28;20178;-69
2022/09/19 03:38:44;;;;;;;7.28;4.65;;;;;;;19.66;57.88;96670.25;4958936;28;20074;-69
2022/09/19 03:41:14;;;;;;;4.90;3.75;;;;;;;19.41;57.28;96675.91;4944387;28;20043;-70
2022/09/19 03:43:44;;;;;;;7.80;3.88;;;;;;;19.69;56.77;96669.69;4942648;28;20374;-69
2022/09/19 03:46:16;;;;;;;6.03;3.25;;;;;;;19.87;56.07;96666.22;4973990;28;20100;-69
2022/09/19 03:48:45;;;;;;;5.28;2.50;;;;;;;19.53;56.12;96764.34;4957974;28;20054;-69
2022/09/19 03:51:13;;;;;;;4.75;2.30;;;;;;;19.28;56.25;96754.59;4974195;28;20038;-73
2022/09/19 03:53:43;;;;;;;4.25;1.50;;;;;;;18.95;54.80;96784.19;4976092;28;20049;-76
2022/09/19 03:56:13;;;;;;;5.85;1.40;;;;;;;19.05;54.12;96741.09;4927159;28;20047;-76
2022/09/19 03:58:41;;;;;;;2.97;1.30;;;;;;;18.77;54.09;96713.06;4942553;28;20493;-74
2022/09/19 04:01:08;;;;;;;5.70;1.35;;;;;;;18.50;52.98;96739.59;4974702;28;20106;-76
2022/09/19 04:03:36;;;;;;;5.68;1.20;;;;;;;18.46;52.22;96751.97;4958613;28;20061;-76
2022/09/19 04:06:03;;;;;;;2.90;0.70;;;;;;;18.35;51.27;96813.00;4926583;28;20433;-75
2022/09/19 04:08:30;;;;;;;1.08;0.90;;;;;;;18.32;50.51;96748.25;4942228;28;20073;-75
2022/09/19 04:10:56;;;;;;;3.65;0.90;;;;;;;18.10;50.22;96782.72;4958014;28;20047;-75
2022/09/19 04:13:22;;;;;;;12.32;1.00;;;;;;;18.09;49.79;96773.06;4925729;28;20054;-75
2022/09/19 04:15:50;;;;;;;3.28;1.00;;;;;;;18.24;49.57;96756.88;4957526;28;20461;-75
2022/09/19 04:18:16;;;;;;;1.13;0.60;;;;;;;17.92;49.75;96786.03;4942193;28;20050;-76
2022/09/19 04:20:42;;;;;;;1.45;0.88;;;;;;;17.95;49.72;96747.88;4941686;28;20058;-77
2022/09/19 04:23:44;;;;;;;5.65;0.70;;;;;;;17.99;49.22;96778.50;4935590;28;20039;-73
2022/09/19 04:26:30;;;;;;;2.85;0.70;;;;;;;18.01;49.16;96765.59;4947223;28;20058;-73
2022/09/19 04:28:56;;;;;;;0.88;0.60;;;;;;;17.69;49.54;96768.66;4925558;28;20256;-75
2022/09/19 04:31:23;;;;;;;1.67;0.82;;;;;;;17.79;49.47;96762.47;4926401;28;20108;-70
2022/09/19 04:33:50;;;;;;;1.23;0.70;;;;;;;17.66;49.60;96757.66;4941885;28;20046;-72
2022/09/19 04:36:18;;;;;;;4.85;0.70;;;;;;;17.56;49.31;96793.34;4941526;28;20053;-76
2022/09/19 04:38:43;;;;;;;4.93;0.90;;;;;;;17.46;49.66;96750.44;4925576;28;20054;-74
2022/09/19 04:41:33;;;;;;;5.47;0.82;;;;;;;17.69;49.61;96773.19;4944341;28;20058;-74
2022/09/19 04:44:03;;;;;;;4.63;0.60;;;;;;;17.64;49.80;96751.75;4941938;28;20050;-73
2022/09/19 04:46:58;;;;;;;4.43;0.77;;;;;;;17.34;50.06;96759.81;4924926;28;20051;-81
2022/09/19 04:49:35;;;;;;;4.05;0.63;;;;;;;17.44;50.07;96816.16;4942025;28;20107;-76
2022/09/19 04:52:01;;;;;;;9.23;0.90;;;;;;;17.35;50.67;96794.44;4958872;28;20086;-78
2022/09/19 04:54:27;;;;;;;2.35;0.90;;;;;;;17.32;50.76;96788.78;4972807;28;20425;-75
2022/09/19 04:56:53;;;;;;;1.27;0.75;;;;;;;17.16;50.59;96814.81;4940772;28;20057;-73
2022/09/19 04:59:19;;;;;;;2.80;0.65;;;;;;;17.06;50.98;96765.75;4941562;28;20046;-76
2022/09/19 05:01:44;;;;;;;3.13;0.77;;;;;;;17.04;50.73;96781.28;4973168;28;20110;-74
2022/09/19 05:04:10;;;;;;;3.45;0.70;;;;;;;17.09;51.10;96752.59;4925344;28;20041;-76
2022/09/19 05:06:36;;;;;;;5.82;0.82;;;;;;;17.17;50.60;96753.94;4932439;29;20107;-77
2022/09/19 05:09:04;;;;;;;4.50;0.65;;;;;;;17.15;50.27;96764.94;4934752;29;20835;-76
2022/09/19 05:11:40;;;;;;;0.85;0.70;;;;;;;17.12;50.11;96727.13;4935004;29;20146;-75
2022/09/19 05:14:09;;;;;;;8.68;0.95;;;;;;;17.12;49.88;96753.94;4936021;29;20043;-76
2022/09/19 05:16:38;;;;;;;1.88;0.70;;;;;;;17.07;50.42;96727.16;4921570;28;20659;-75
2022/09/19 05:19:06;;;;;;;4.57;0.70;;;;;;;17.17;49.74;96735.97;4971746;28;20050;-75
2022/09/19 05:21:33;;;;;;;3.03;0.88;;;;;;;17.11;50.12;96737.06;4973273;28;20105;-75
2022/09/19 05:24:00;;;;;;;0.95;0.60;;;;;;;17.19;50.02;96751.81;4956708;28;20050;-77
2022/09/19 05:26:26;;;;;;;0.82;0.65;;;;;;;16.98;50.44;96728.72;4939866;28;20047;-75
2022/09/19 05:28:55;;;;;;;3.40;0.82;;;;;;;17.08;50.06;96744.84;4955864;28;20149;-77
2022/09/19 05:31:25;;;;;;;3.65;0.60;;;;;;;16.91;50.04;96763.06;4925323;28;20069;-76
2022/09/19 05:34:02;;;;;;;11.48;1.35;;;;;;;17.08;49.78;96748.31;4932553;28;20042;-75
2022/09/19 05:36:32;;;;;;;1.15;0.63;;;;;;;17.07;49.87;96743.22;4915415;28;20049;-75
2022/09/19 05:39:20;;;;;;;0.65;0.55;;;;;;;17.04;49.50;96766.00;4933539;28;20146;-77
2022/09/19 05:42:04;;;;;;;2.17;0.63;;;;;;;17.14;49.21;96805.44;4940128;28;20047;-77
2022/09/19 05:44:32;;;;;;;0.70;0.70;;;;;;;17.04;49.41;96774.06;4922186;29;20097;-78
2022/09/19 05:47:01;;;;;;;2.40;0.60;;;;;;;17.24;49.37;96773.22;4906309;29;20051;-75
2022/09/19 05:49:27;;;;;;;5.72;0.60;;;;;;;17.19;49.22;96767.91;4920521;29;20047;-81
2022/09/19 05:51:56;;;;;;;2.85;0.60;;;;;;;17.03;48.68;96755.56;4909085;28;20051;-78
2022/09/19 05:54:27;;;;;;;2.10;0.60;;;;;;;17.19;48.81;96760.63;4916359;28;20403;-76
2022/09/19 05:57:11;;;;;;;3.67;0.52;;;;;;;17.43;47.57;96785.03;4950340;28;20394;-78
2022/09/19 05:59:38;;;;;;;2.42;0.60;;;;;;;17.18;47.90;96755.53;4915346;28;20138;-75
2022/09/19 06:02:06;;;;;;;2.55;0.50;;;;;;;17.24;47.92;96749.91;4945642;28;20054;-75
2022/09/19 06:04:39;;;;;;;1.15;0.50;;;;;;;17.23;47.90;96763.59;4948193;28;20046;-75
2022/09/19 06:07:06;;;;;;;3.75;0.55;;;;;;;17.53;47.68;96750.19;4912007;29;20151;-75
2022/09/19 06:09:32;;;;;;;0.52;0.50;;;;;;;17.84;47.05;96776.66;4921975;28;20069;-75
2022/09/19 06:11:59;;;;;;;1.25;0.60;;;;;;;17.76;47.14;96763.00;4939678;28;20074;-75
2022/09/19 06:14:27;;;;;;;0.95;0.70;;;;;;;17.77;46.95;96842.44;4923019;28;20073;-76
2022/09/19 06:16:54;;;;;;;3.50;0.80;;;;;;;17.44;47.43;96757.16;4938923;28;20097;-76
2022/09/19 06:19:34;;;;;;;;;;;;;;;17.85;46.94;96769.41;4957926;28;20043;-74
2022/09/19 06:22:05;;;;;;;6.73;0.80;;;;;;;17.38;47.72;96758.19;4939217;28;19933;-76
2022/09/19 06:24:32;;;;;;;2.90;0.60;;;;;;;17.41;47.65;96741.56;4935388;29;20071;-75
2022/09/19 06:26:58;;;;;;;6.68;0.90;;;;;;;17.21;48.27;96784.50;4920545;28;20486;-74
2022/09/19 06:29:26;;;;;;;0.95;0.70;;;;;;;17.02;48.24;96729.81;4956037;28;20065;-75
2022/09/19 06:32:11;;;;;;;3.50;0.50;;;;;;;17.11;47.84;96741.63;4940622;28;20046;-74
2022/09/19 06:34:41;;;;;;;4.07;0.70;;;;;;;17.54;47.02;96759.81;4955356;28;20043;-75
2022/09/19 06:37:07;;;;;;;2.92;0.50;;;;;;;17.48;46.44;96763.59;4942133;28;20046;-75
2022/09/19 06:39:33;;;;;;;2.25;0.50;;;;;;;17.59;46.18;96787.44;4959914;28;20097;-76
2022/09/19 06:42:18;;;;;;;0.50;0.50;;;;;;;17.28;46.86;96783.19;4941997;28;20149;-76
2022/09/19 06:45:06;;;;;;;1.20;0.60;;;;;;;17.55;46.56;96775.66;4941429;28;20050;-75
2022/09/19 06:47:58;;;;;;;2.08;0.63;;;;;;;17.64;45.78;96842.97;4958226;28;20050;-76
2022/09/19 06:50:53;;;;;;;0.57;0.43;;;;;;;17.16;47.07;96777.25;4945476;28;20121;-75
2022/09/19 06:53:20;;;;;;;4.68;0.47;;;;;;;17.06;46.97;96822.84;4940095;28;20094;-74
2022/09/19 06:55:48;;;;;;;2.25;0.50;;;;;;;17.30;47.26;96809.72;4980959;28;20069;-76
2022/09/19 06:58:21;;;;;;;4.60;0.30;;;;;;;16.98;47.72;96785.84;4966992;28;20046;-75
2022/09/19 07:00:48;;;;;;;5.10;0.60;;;;;;;17.30;48.14;96831.19;4949198;28;20131;-75
2022/09/19 07:03:17;;;;;;;5.82;0.40;;;;;;;17.13;46.67;96772.44;4980989;28;20479;-73
2022/09/19 07:05:57;;;;;;;0.65;0.30;;;;;;;17.42;46.47;96831.72;4966521;28;20574;-71
2022/09/19 07:08:24;;;;;;;1.50;0.30;;;;;;;16.59;47.83;96809.63;4996956;28;20137;-72
2022/09/19 07:10:56;;;;;;;1.55;0.38;;;;;;;16.04;49.12;96811.28;4997215;28;20049;-72
2022/09/19 07:13:21;;;;;;;0.22;0.20;;;;;;;15.65;50.17;96823.38;4979263;28;20046;-71
2022/09/19 07:15:58;;;;;;;0.30;0.30;;;;;;;15.69;50.80;96830.63;4921246;28;20049;-73
2022/09/19 07:18:24;;;;;;;2.90;0.40;;;;;;;15.56;50.82;96840.97;4951304;28;20042;-75
2022/09/19 07:20:51;;;;;;;1.08;0.73;;;;;;;15.37;50.87;96800.44;4943382;28;20199;-67
2022/09/19 07:23:19;;;;;;;1.67;0.50;;;;;;;16.12;49.34;96829.53;4993939;28;20112;-70
2022/09/19 07:26:05;;;;;;;3.33;0.40;;;;;;;15.85;49.22;96850.25;4992351;28;20065;-70
2022/09/19 07:28:34;;;;;;;2.30;0.30;;;;;;;15.76;49.48;96830.41;4955172;28;20086;-71
2022/09/19 07:31:02;;;;;;;0.95;0.40;;;;;;;15.45;49.50;96861.50;4956871;28;20146;-70
2022/09/19 07:33:31;;;;;;;2.28;0.30;;;;;;;15.57;49.34;96837.22;4956803;28;20434;-71
2022/09/19 07:35:59;;;;;;;3.08;0.40;;;;;;;15.62;49.13;96839.94;4923491;28;20042;-70
2022/09/19 07:38:28;;;;;;;2.47;0.50;;;;;;;15.20;49.51;96816.63;4956323;28;20062;-71
2022/09/19 07:41:21;;;;;;;3.72;0.57;;;;;;;15.08;49.57;96848.03;4965847;28;20059;-71
2022/09/19 07:44:03;;;;;;;3.92;0.50;;;;;;;15.42;48.76;96854.00;4959145;28;20047;-71
2022/09/19 07:49:47;;;;;;;2.67;0.68;;;;;;;15.23;48.57;96837.50;4959910;28;20475;-70
2022/09/19 07:52:33;;;;;;;2.13;0.45;;;;;;;15.34;47.97;96870.47;4972678;28;20053;-70
2022/09/19 07:54:59;;;;;;;0.45;0.30;;;;;;;15.48;48.01;96847.63;4940503;28;20042;-71
2022/09/19 07:57:25;;;;;;;0.65;0.50;;;;;;;15.30;48.40;96831.91;4956796;28;20074;-71
2022/09/19 07:59:51;;;;;;;4.25;0.52;;;;;;;15.45;48.21;96876.72;4973330;28;20106;-70
2022/09/19 08:02:17;;;;;;;2.22;0.47;;;;;;;15.18;48.26;96852.66;4957000;28;20073;-71
2022/09/19 08:04:43;;;;;;;0.73;0.50;;;;;;;15.37;47.76;96864.59;4937534;29;20098;-71
2022/09/19 08:07:16;;;;;;;1.17;0.30;;;;;;;15.40;47.46;96885.53;4953448;28;20182;-71
2022/09/19 08:09:43;;;;;;;3.22;0.40;;;;;;;15.14;47.72;96843.56;4937383;29;20057;-71
2022/09/19 08:12:22;;;;;;;9.73;0.65;;;;;;;15.43;47.50;96860.94;4953915;29;20106;-72
2022/09/19 08:15:00;;;;;;;2.75;0.50;;;;;;;15.82;46.44;96856.91;4953855;28;20043;-70
2022/09/19 08:17:26;;;;;;;4.90;0.40;;;;;;;15.52;46.80;96856.72;4954070;28;20035;-71
2022/09/19 08:19:54;;;;;;;2.97;0.30;;;;;;;15.79;46.28;96862.78;4953521;28;20043;-71
2022/09/19 08:22:20;;;;;;;1.25;0.35;;;;;;;15.84;45.97;96836.06;4908872;29;20047;-70
2022/09/19 08:24:53;;;;;;;23.35;1.05;;;;;;;15.78;46.00;96865.72;4971522;28;20038;-71
2022/09/19 08:27:19;;;;;;;11.27;0.90;;;;;;;15.66;46.33;96846.38;4972614;28;20073;-71
2022/09/19 08:29:46;;;;;;;0.45;0.45;;;;;;;15.79;45.86;96851.31;4972145;28;20038;-71
2022/09/19 08:32:14;;;;;;;4.75;0.40;;;;;;;15.78;45.25;96879.09;4972408;28;20130;-71
2022/09/19 08:34:41;;;;;;;2.20;0.68;;;;;;;15.58;45.98;96842.31;4972144;28;20046;-71
2022/09/19 08:37:07;;;;;;;7.43;0.60;;;;;;;15.61;45.97;96809.72;4923841;28;20066;-71
2022/09/19 08:40:15;;;;;;;3.45;0.60;;;;;;;15.88;45.28;96841.72;4971961;28;20043;-71
2022/09/19 08:42:29;;;;;;;1.85;0.55;;;;;;;15.84;46.30;96845.97;4971992;28;20101;-71
2022/09/19 08:45:23;;;;;;;0.65;0.60;;;;;;;16.03;45.59;96880.09;4955972;28;20046;-71
2022/09/19 08:47:49;;;;;;;0.47;0.40;;;;;;;15.49;46.70;96819.78;4954098;28;20046;-72
2022/09/19 08:50:25;;;;;;;4.18;0.68;;;;;;;15.79;46.73;96817.31;4971928;28;20050;-71
2022/09/19 08:52:54;;;;;;;5.47;0.70;;;;;;;16.07;46.26;96840.19;4955799;28;20125;-71
2022/09/19 08:55:26;;;;;;;2.38;0.60;;;;;;;16.00;46.58;96843.13;4956015;28;20515;-71
2022/09/19 08:57:58;;;;;;;1.85;0.40;;;;;;;16.09;46.52;96838.06;4971659;28;20113;-71
2022/09/19 09:00:30;;;;;;;8.40;0.50;;;;;;;15.69;48.66;96803.06;4955989;28;20100;-70
2022/09/19 09:03:04;;;;;;;4.28;0.40;;;;;;;16.03;48.60;96869.38;4956019;28;20051;-71
2022/09/19 09:06:01;;;;;;;2.45;0.57;;;;;;;15.96;48.69;96830.53;4926550;28;20047;-71
2022/09/19 09:08:46;;;;;;;2.08;0.60;;;;;;;16.04;48.73;96830.00;4939708;28;20101;-71
2022/09/19 09:11:35;;;;;;;5.97;0.60;;;;;;;15.66;49.01;96897.22;4971147;28;20047;-70
2022/09/19 09:14:30;;;;;;;5.30;0.60;;;;;;;15.65;50.64;96839.44;4955502;28;20548;-73
2022/09/19 09:17:19;;;;;;;0.43;0.40;;;;;;;15.43;52.83;96878.84;4956432;28;20133;-74
2022/09/19 09:20:13;;;;;;;1.20;0.40;;;;;;;15.08;54.51;96885.44;4939423;28;20105;-75
2022/09/19 09:22:49;;;;;;;0.60;0.60;;;;;;;14.93;56.11;96839.88;4971360;28;20516;-75
2022/09/19 09:25:39;;;;;;;0.70;0.45;;;;;;;14.47;57.05;96874.38;4957150;28;20042;-73
2022/09/19 09:28:25;;;;;;;0.45;0.40;;;;;;;14.41;57.33;96904.75;4939303;28;20154;-74
2022/09/19 09:31:24;;;;;;;0.75;0.40;;;;;;;14.45;57.88;96913.88;4972466;28;20046;-73
2022/09/19 09:33:57;;;;;;;2.70;0.40;;;;;;;14.40;57.65;96957.34;4957072;28;20078;-74
2022/09/19 09:36:23;;;;;;;;;;;;;;;14.39;57.01;96930.91;4956251;28;20453;-73
2022/09/19 09:38:54;;;;;;;0.40;0.32;;;;;;;14.42;57.22;96898.38;4955358;28;19922;-74
2022/09/19 09:41:45;;;;;;;3.70;0.50;;;;;;;14.62;56.01;96911.97;4955611;28;20548;-73
2022/09/19 09:44:13;;;;;;;2.08;0.50;;;;;;;14.56;56.40;96859.53;4955610;28;20229;-73
2022/09/19 09:46:48;;;;;;;0.85;0.70;;;;;;;14.92;55.22;96878.38;4957069;28;20070;-73
2022/09/19 09:49:14;;;;;;;0.63;0.50;;;;;;;14.84;54.94;96875.31;4955921;28;20043;-73
2022/09/19 09:51:41;;;;;;;0.38;0.38;;;;;;;14.77;54.39;96882.75;4971373;28;20039;-73
2022/09/19 09:57:36;;;;;;;2.55;0.40;;;;;;;15.01;54.04;96876.03;4971107;28;20113;-72
2022/09/19 10:06:08;;;;;;;0.50;0.50;;;;;;;15.31;54.09;96873.66;4955006;28;19918;-71
2022/09/19 10:08:58;;;;;;;0.70;0.70;;;;;;;15.33;53.47;96908.94;4923274;28;20429;-72
2022/09/19 10:11:45;;;;;;;0.30;0.30;;;;;;;15.11;53.71;96892.97;4973778;28;20051;-72
2022/09/19 10:14:19;;;;;;;3.35;0.40;;;;;;;14.97;53.77;96861.56;4942814;28;20043;-76
2022/09/19 10:16:48;;;;;;;3.22;0.40;;;;;;;15.06;53.63;96865.41;4959002;28;20144;-72
2022/09/19 10:19:42;;;;;;;0.65;0.52;;;;;;;15.08;53.47;96876.66;4975671;28;20081;-71
2022/09/19 10:22:14;;;;;;;0.40;0.40;;;;;;;15.17;52.42;96843.06;4941197;28;20473;-77
2022/09/19 10:24:45;;;;;;;0.95;0.60;;;;;;;15.53;51.64;96862.91;4959049;28;20153;-72
2022/09/19 10:27:22;;;;;;;1.13;0.60;;;;;;;15.34;51.31;96875.00;4960184;28;20051;-75
2022/09/19 10:29:59;;;;;;;0.90;0.52;;;;;;;15.61;51.36;96839.13;4962266;28;20096;-71
2022/09/19 10:32:37;;;;;;;2.03;0.50;;;;;;;15.36;51.38;96873.66;4945936;28;20081;-70
2022/09/19 10:35:27;;;;;;;4.18;0.50;;;;;;;15.51;51.38;96860.47;4967855;28;20041;-70
2022/09/19 10:38:13;;;;;;;1.65;0.40;;;;;;;15.51;52.16;96903.28;4966255;28;20049;-72
2022/09/19 10:40:58;;;;;;;0.40;0.40;;;;;;;15.66;51.84;96857.91;4968629;28;20469;-71
2022/09/19 10:43:45;;;;;;;1.70;0.40;;;;;;;15.46;51.87;96833.69;4938098;28;20105;-71
2022/09/19 10:46:18;;;;;;;1.55;0.55;;;;;;;15.41;52.46;96833.63;4952675;28;20038;-70
2022/09/19 10:48:56;;;;;;;3.75;0.90;;;;;;;15.27;54.26;96833.25;4917291;28;20050;-71
2022/09/19 10:51:25;;;;;;;0.50;0.50;;;;;;;15.34;54.80;96817.00;4920952;28;20046;-78
2022/09/19 10:53:55;;;;;;;1.15;0.52;;;;;;;15.23;54.13;96834.00;4936789;28;20045;-72
2022/09/19 10:56:33;;;;;;;1.35;0.50;;;;;;;15.05;55.51;96856.56;4934233;28;20175;-73
2022/09/19 10:59:26;;;;;;;2.00;0.80;;;;;;;14.95;58.15;96851.13;4933136;28;20038;-73
2022/09/19 11:02:22;;;;;;;1.65;0.52;;;;;;;14.81;57.46;96819.72;4951682;28;20039;-72
2022/09/19 11:05:09;;;;;;;0.60;0.60;;;;;;;14.66;58.28;96808.91;4945263;28;20047;-72
2022/09/19 11:07:54;;;;;;;2.92;0.60;;;;;;;14.72;58.67;96821.25;4946545;28;20122;-72
2022/09/19 11:10:37;;;;;;;4.60;0.60;;;;;;;14.64;59.79;96829.69;4947598;28;20141;-77
2022/09/19 11:13:13;;;;;;;3.15;0.80;;;;;;;14.51;60.19;96811.41;4976318;28;20046;-72
2022/09/19 11:16:03;;;;;;;2.17;0.65;;;;;;;15.07;59.95;96824.22;4961122;28;20096;-72
2022/09/19 11:19:01;;;;;;;4.40;0.80;;;;;;;14.51;59.85;96787.38;4944493;28;20046;-72
2022/09/19 11:21:41;;;;;;;3.70;0.60;;;;;;;14.39;60.98;96824.88;4962070;28;20188;-74
2022/09/19 11:24:37;;;;;;;1.00;0.70;;;;;;;14.72;61.08;96862.13;4982962;28;20161;-74
2022/09/19 11:27:15;;;;;;;10.82;0.80;;;;;;;14.46;61.63;96865.56;4979252;28;20050;-75
2022/09/19 11:30:13;;;;;;;1.95;0.70;;;;;;;14.43;61.19;96972.06;4977051;28;20050;-73
2022/09/19 11:32:44;;;;;;;0.60;0.60;;;;;;;14.23;61.72;96840.94;4960834;28;20182;-71
2022/09/19 11:35:25;;;;;;;1.52;0.57;;;;;;;14.45;61.62;96863.16;4960351;28;20480;-71
2022/09/19 11:37:57;;;;;;;0.68;0.40;;;;;;;14.29;61.47;96886.19;4977033;28;20125;-70
2022/09/19 11:40:31;;;;;;;0.75;0.73;;;;;;;14.49;61.31;96841.03;4960346;28;20133;-70
2022/09/19 11:43:29;;;;;;;0.90;0.50;;;;;;;14.59;61.38;96885.75;4975934;28;20038;-70
2022/09/19 11:46:03;;;;;;;0.80;0.52;;;;;;;14.15;61.81;96902.75;4944444;28;20145;-71
2022/09/19 11:49:03;;;;;;;3.05;0.60;;;;;;;14.50;61.61;96863.22;4960210;28;20137;-71
2022/09/19 11:51:32;;;;;;;4.10;0.68;;;;;;;14.32;62.06;96904.38;4959737;28;20046;-71
2022/09/19 11:54:06;;;;;;;0.88;0.60;;;;;;;14.29;62.52;96906.72;4959987;28;20085;-70
2022/09/19 11:56:46;;;;;;;1.10;0.60;;;;;;;14.32;62.95;96919.56;4942759;28;20132;-71
2022/09/19 11:59:22;;;;;;;1.10;0.50;;;;;;;13.96;63.52;96882.78;4974408;28;20984;-71
2022/09/19 12:02:08;;;;;;;2.30;0.80;;;;;;;14.22;63.18;96946.91;4975166;28;20046;-72
2022/09/19 12:04:42;;;;;;;0.75;0.70;;;;;;;14.39;63.26;96910.31;4942397;28;20053;-71
2022/09/19 12:07:25;;;;;;;3.15;0.60;;;;;;;14.32;62.90;96938.25;4938535;28;20049;-70
2022/09/19 12:10:04;;;;;;;12.00;0.75;;;;;;;14.21;62.63;96955.16;4924987;28;20054;-70
2022/09/19 12:12:36;;;;;;;0.50;0.50;;;;;;;14.10;63.13;96889.38;4955544;28;20046;-70
2022/09/19 12:15:28;;;;;;;1.70;0.60;;;;;;;14.03;63.05;96958.94;4949626;28;20181;-70
2022/09/19 12:18:16;;;;;;;1.10;0.70;;;;;;;14.35;62.94;96940.44;4940507;28;20046;-70
2022/09/19 12:20:45;;;;;;;5.05;0.88;;;;;;;14.01;62.87;96909.53;4933419;28;20504;-69
2022/09/19 12:26:30;;;;;;;3.72;0.93;;;;;;;14.36;61.04;96902.03;4976626;28;20055;-70
2022/09/19 12:29:17;;;;;;;2.38;0.63;;;;;;;14.41;61.09;96902.06;4943725;28;20504;-72